METAR Data
IDs: Format: Raw Decoded Include TAF

Data at: 1454 UTC 25 Jan 2020

KERV 251435Z AUTO 00000KT 10SM OVC015 11/08 A3010 RMK AO2 T01060082
KERV 251415Z AUTO 00000KT 10SM OVC015 10/08 A3010 RMK AO2 T01020080
KERV 251355Z AUTO 00000KT 10SM OVC015 09/07 A3009 RMK AO2 T00920068
KERV 251335Z AUTO 00000KT 10SM OVC015 09/07 A3009 RMK AO2 T00920068
KERV 251315Z AUTO 00000KT 10SM OVC015 09/07 A3009 RMK AO2 T00920069
KERV 251255Z AUTO 00000KT 10SM OVC017 08/06 A3009 RMK AO2 T00810058
KERV 251235Z AUTO 00000KT 10SM BKN017 07/05 A3009 RMK AO2 T00740054
KERV 251215Z AUTO 00000KT 10SM CLR 07/05 A3008 RMK AO2 T00720050
KERV 251155Z AUTO 00000KT 10SM CLR 07/05 A3008 RMK AO2 T00690046 10078 20050
KERV 251135Z AUTO 00000KT 10SM CLR 07/05 A3008 RMK AO2 T00710046
KERV 251115Z AUTO 00000KT 10SM CLR 07/05 A3008 RMK AO2 T00720047
KERV 251055Z AUTO 00000KT 10SM CLR 07/05 A3008 RMK AO2 T00720047

KT82 251435Z AUTO 18003KT 10SM BKN015 10/08 A3010 RMK AO2 T01010075
KT82 251415Z AUTO 18005KT 10SM SCT015 09/07 A3010 RMK AO2 T00910074
KT82 251355Z AUTO 00000KT 10SM SCT015 06/05 A3009 RMK AO2 T00630050
KT82 251335Z AUTO 00000KT 10SM SCT017 07/05 A3009 RMK AO2 T00720051
KT82 251315Z AUTO 00000KT 10SM CLR 08/05 A3009 RMK AO2 T00830053
KT82 251255Z AUTO 20005KT 10SM CLR 09/06 A3009 RMK AO2 T00870057
KT82 251235Z AUTO 18005KT 10SM CLR 09/06 A3008 RMK AO2 T00850055
KT82 251215Z AUTO 18004KT 10SM CLR 08/05 A3008 RMK AO2 T00810051
KT82 251155Z AUTO 19003KT 10SM CLR 07/04 A3008 RMK AO2 T00720044 10091 20035
KT82 251135Z AUTO 00000KT 10SM CLR 07/04 A3007 RMK AO2 T00690037
KT82 251115Z AUTO 00000KT 10SM CLR 07/04 A3008 RMK AO2 T00720035
KT82 251055Z AUTO 00000KT 10SM CLR 05/02 A3008 RMK AO2 T00530019

KJCT 251451Z AUTO 29003KT 10SM BKN018 07/04 A3009 RMK AO2 SLP174 T00670039 53011
KJCT 251422Z AUTO 27003KT 10SM OVC016 05/02 A3009 RMK AO2 T00500022
KJCT 251354Z AUTO 29003KT 10SM BKN014 04/02 A3008 RMK AO2 T00390017
KJCT 251351Z AUTO 00000KT 10SM SCT016 04/02 A3008 RMK AO2 SLP172 T00390017
KJCT 251251Z AUTO 00000KT 10SM CLR 04/02 A3007 RMK AO2 SLP164 T00390017
KJCT 251151Z AUTO 00000KT 10SM CLR 04/02 A3006 RMK AO2 SLP160 T00440017 10083 20039 58002

K5C1 251435Z AUTO 00000KT 10SM CLR 08/07 A3012 RMK AO1
K5C1 251415Z AUTO 00000KT 10SM SCT019 06/06 A3012 RMK AO1
K5C1 251355Z AUTO 00000KT 10SM BKN019 06/06 A3012 RMK AO1
K5C1 251335Z AUTO 00000KT 10SM BKN019 06/06 A3012 RMK AO1
K5C1 251315Z AUTO 00000KT 10SM SCT043 05/05 A3011 RMK AO1
K5C1 251255Z AUTO 00000KT 10SM SCT045 05/05 A3011 RMK AO1
K5C1 251235Z AUTO 00000KT 10SM SCT047 07/06 A3011 RMK AO1
K5C1 251215Z AUTO 00000KT 10SM SCT044 06/06 A3010 RMK AO1
K5C1 251155Z AUTO 00000KT 10SM SCT044 05/04 A3010 RMK AO1
K5C1 251135Z AUTO 00000KT 10SM CLR 05/04 A3010 RMK AO1
K5C1 251115Z AUTO 00000KT 10SM CLR 05/03 A3010 RMK AO1
K5C1 251055Z AUTO 00000KT 10SM CLR 05/03 A3010 RMK AO1

KHDO 251451Z AUTO 09003KT 10SM BKN022 OVC028 11/07 A3011 RMK AO2 SLP191 T01060072 51007
KHDO 251351Z AUTO 07003KT 10SM BKN022 OVC050 09/06 A3011 RMK AO2 SLP189 T00890061
KHDO 251251Z AUTO 07003KT 10SM CLR 07/04 A3009 RMK AO2 SLP184 T00670044
KHDO 251151Z AUTO 02004KT 10SM OVC050 07/05 A3009 RMK AO2 SLP181 T00720050 10094 20044 56006

KUVA 251435Z AUTO 09003KT 10SM BKN018 BKN026 OVC047 10/08 A3011 RMK AO2 T01040081
KUVA 251415Z AUTO 06003KT 10SM SCT018 SCT025 OVC047 10/08 A3011 RMK AO2 T00980076
KUVA 251355Z AUTO 07003KT 10SM BKN018 BKN025 OVC047 10/07 A3010 RMK AO2 T00960073
KUVA 251335Z AUTO 07003KT 10SM OVC018 10/07 A3010 RMK AO2 T00950072
KUVA 251315Z AUTO 06004KT 10SM OVC020 09/07 A3010 RMK AO2 T00900070
KUVA 251255Z AUTO 06004KT 10SM OVC020 09/07 A3010 RMK AO2 T00850065
KUVA 251235Z AUTO 06005KT 10SM SCT020 BKN045 08/06 A3009 RMK AO2 T00820062
KUVA 251215Z AUTO 06005KT 10SM SCT045 08/06 A3009 RMK AO2 T00760058
KUVA 251155Z AUTO 06005KT 10SM CLR 08/06 A3009 RMK AO2 T00750055 10105 20070
KUVA 251135Z AUTO 06006KT 10SM CLR 08/06 A3009 RMK AO2 T00760055
KUVA 251115Z AUTO 06006KT 10SM CLR 08/05 A3010 RMK AO2 T00760050
KUVA 251055Z AUTO 06005KT 10SM CLR 07/05 A3010 RMK AO2 T00730046

KSAT 251451Z 00000KT 10SM OVC055 11/06 A3013 RMK AO2 SLP191 T01110061 53007
KSAT 251351Z 31003KT 10SM FEW050 BKN250 07/04 A3012 RMK AO2 SLP191 T00720039
KSAT 251251Z 31003KT 10SM SCT055 07/04 A3011 RMK AO2 SLP184 T00720039
KSAT 251151Z 32003KT 10SM BKN055 07/04 A3010 RMK AO2 SLP184 T00720039 10117 20061 55005

KSSF 251353Z 00000KT 10SM BKN055 07/06 A3011 RMK AO2 SLP197 T00720061
KSSF 251253Z 00000KT 10SM CLR 07/06 A3009 RMK AO2 SLP189 T00720056
KSSF 251153Z AUTO 00000KT 10SM OVC060 07/06 A3009 RMK AO2 SLP189 T00720056 10094 20050 55004